createdAt,value
2024-02-23T00:01:59.363Z,56.75
2024-02-23T00:04:26.954Z,56.65
2024-02-23T00:06:54.716Z,56.76
2024-02-23T00:09:22.408Z,56.34
2024-02-23T00:11:50.774Z,56.42
2024-02-23T00:14:19.682Z,56.11
2024-02-23T00:16:48.064Z,55.70
2024-02-23T00:19:17.878Z,55.87
2024-02-23T00:21:48.791Z,55.47
2024-02-23T00:24:17.606Z,55.00
2024-02-23T00:26:45.869Z,54.69
2024-02-23T00:29:13.577Z,54.71
2024-02-23T00:31:42.195Z,54.54
2024-02-23T00:34:14.349Z,54.14
2024-02-23T00:36:43.073Z,54.47
2024-02-23T00:39:10.714Z,54.33
2024-02-23T00:41:38.474Z,53.97
2024-02-23T00:44:06.682Z,53.46
2024-02-23T00:46:35.127Z,53.54
2024-02-23T00:49:03.593Z,53.85
2024-02-23T00:51:31.279Z,53.81
2024-02-23T00:53:58.821Z,53.58
2024-02-23T00:56:30.086Z,53.64
2024-02-23T00:59:03.715Z,53.52
2024-02-23T01:01:33.099Z,53.38
2024-02-23T01:04:00.669Z,53.24
2024-02-23T01:06:29.516Z,53.09
2024-02-23T01:08:57.340Z,53.26
2024-02-23T01:11:25.084Z,52.97
2024-02-23T01:13:52.673Z,52.82
2024-02-23T01:16:20.232Z,53.27
2024-02-23T01:18:48.533Z,52.93
2024-02-23T01:21:16.626Z,53.04
2024-02-23T01:23:44.192Z,52.88
2024-02-23T01:26:11.778Z,53.13
2024-02-23T01:28:39.318Z,53.17
2024-02-23T01:31:11.825Z,53.01
2024-02-23T01:33:40.751Z,52.89
2024-02-23T01:36:09.133Z,52.88
2024-02-23T01:38:36.824Z,53.11
2024-02-23T01:41:05.526Z,53.16
2024-02-23T01:43:33.149Z,53.21
2024-02-23T01:46:00.983Z,53.78
2024-02-23T01:48:28.755Z,53.22
2024-02-23T01:50:57.091Z,53.21
2024-02-23T01:53:27.002Z,53.87
2024-02-23T01:55:55.535Z,53.55
2024-02-23T01:58:23.200Z,53.84
2024-02-23T02:00:50.773Z,54.30
2024-02-23T02:03:18.436Z,54.70
2024-02-23T02:05:46.695Z,54.52
2024-02-23T02:08:14.311Z,55.23
2024-02-23T02:10:43.684Z,55.12
2024-02-23T02:13:11.287Z,54.87
2024-02-23T02:15:38.996Z,54.90
2024-02-23T02:18:06.771Z,55.65
2024-02-23T02:20:36.872Z,55.40
2024-02-23T02:23:05.059Z,55.50
2024-02-23T02:25:32.620Z,55.66
2024-02-23T02:28:00.271Z,55.72
2024-02-23T02:30:27.890Z,55.58
2024-02-23T02:32:55.568Z,55.77
2024-02-23T02:35:23.173Z,55.76
2024-02-23T02:37:50.803Z,55.60
2024-02-23T02:40:18.381Z,55.75
2024-02-23T02:42:45.929Z,55.50
2024-02-23T02:45:13.627Z,55.55
2024-02-23T02:47:41.296Z,55.44
2024-02-23T02:50:10.242Z,55.21
2024-02-23T02:52:38.240Z,55.02
2024-02-23T02:55:06.087Z,55.16
2024-02-23T02:57:33.725Z,54.97
2024-02-23T03:00:01.372Z,54.85
2024-02-23T03:02:29.094Z,54.51
2024-02-23T03:04:56.815Z,54.22
2024-02-23T03:07:24.465Z,54.32
2024-02-23T03:09:52.111Z,54.21
2024-02-23T03:12:19.747Z,53.84
2024-02-23T03:14:47.725Z,53.73
2024-02-23T03:17:15.365Z,53.55
2024-02-23T03:19:43.172Z,53.57
2024-02-23T03:22:10.906Z,53.09
2024-02-23T03:24:38.924Z,52.82
2024-02-23T03:27:06.568Z,52.95
2024-02-23T03:29:34.398Z,52.91
2024-02-23T03:32:02.804Z,51.50
2024-02-23T03:34:30.492Z,52.03
2024-02-23T03:36:59.448Z,52.09
2024-02-23T03:39:27.053Z,52.28
2024-02-23T03:41:54.583Z,52.44
2024-02-23T03:44:22.281Z,52.47
2024-02-23T03:46:50.882Z,52.09
2024-02-23T03:49:18.527Z,52.12
2024-02-23T03:51:46.457Z,51.76
2024-02-23T03:54:14.076Z,51.90
2024-02-23T03:56:42.700Z,51.98
2024-02-23T03:59:11.532Z,51.45
2024-02-23T04:01:42.027Z,51.64
2024-02-23T04:04:09.754Z,51.28
2024-02-23T04:06:37.853Z,51.06
2024-02-23T04:09:06.583Z,51.39
2024-02-23T04:11:34.515Z,51.12
2024-02-23T04:14:02.983Z,50.87
2024-02-23T04:16:30.694Z,50.93
2024-02-23T04:18:58.506Z,50.68
2024-02-23T04:21:26.704Z,50.56
2024-02-23T04:23:54.251Z,50.50
2024-02-23T04:26:21.915Z,50.21
2024-02-23T04:28:49.686Z,49.94
2024-02-23T04:31:17.286Z,50.18
2024-02-23T04:33:44.865Z,50.02
2024-02-23T04:36:12.420Z,49.40
2024-02-23T04:38:39.976Z,50.01
2024-02-23T04:41:08.299Z,49.54
2024-02-23T04:43:36.127Z,49.51
2024-02-23T04:46:04.024Z,49.40
2024-02-23T04:48:34.183Z,49.44
2024-02-23T04:51:01.752Z,49.74
2024-02-23T04:53:29.853Z,49.10
2024-02-23T04:55:57.496Z,48.98
2024-02-23T04:58:25.128Z,48.87
2024-02-23T05:00:52.933Z,48.95
2024-02-23T05:03:20.489Z,48.73
2024-02-23T05:05:49.568Z,48.83
2024-02-23T05:08:17.372Z,48.63
2024-02-23T05:10:44.987Z,48.35
2024-02-23T05:13:12.563Z,48.89
2024-02-23T05:15:40.142Z,48.79
2024-02-23T05:18:07.991Z,48.84
2024-02-23T05:20:35.671Z,48.09
2024-02-23T05:23:03.867Z,48.71
2024-02-23T05:25:31.400Z,48.66
2024-02-23T05:27:58.962Z,48.49
2024-02-23T05:30:28.326Z,48.52
2024-02-23T05:32:56.383Z,48.65
2024-02-23T05:35:24.039Z,48.59
2024-02-23T05:37:51.661Z,48.76
2024-02-23T05:40:19.387Z,48.75
2024-02-23T05:42:47.532Z,48.39
2024-02-23T05:45:15.170Z,48.57
2024-02-23T05:47:46.166Z,48.79
2024-02-23T05:50:16.252Z,48.72
2024-02-23T05:52:44.052Z,48.57
2024-02-23T05:55:11.723Z,48.71
2024-02-23T05:57:39.289Z,48.84
2024-02-23T06:00:08.584Z,49.17
2024-02-23T06:02:40.145Z,48.78
2024-02-23T06:05:09.248Z,48.88
2024-02-23T06:07:37.922Z,49.10
2024-02-23T06:10:06.460Z,48.83
2024-02-23T06:12:34.060Z,48.99
2024-02-23T06:15:01.713Z,49.32
2024-02-23T06:17:29.468Z,48.99
2024-02-23T06:19:59.971Z,49.07
2024-02-23T06:22:27.563Z,49.52
2024-02-23T06:24:55.115Z,49.33
2024-02-23T06:27:23.022Z,49.71
2024-02-23T06:29:51.243Z,49.71
2024-02-23T06:32:18.946Z,49.78
2024-02-23T06:34:47.372Z,49.97
2024-02-23T06:37:14.987Z,50.18
2024-02-23T06:39:43.176Z,49.86
2024-02-23T06:42:10.916Z,49.66
2024-02-23T06:44:38.548Z,50.12
2024-02-23T06:47:07.911Z,50.05
2024-02-23T06:49:35.585Z,50.04
2024-02-23T06:52:03.345Z,50.20
2024-02-23T06:54:30.901Z,50.30
2024-02-23T06:56:58.893Z,50.54
2024-02-23T06:59:26.524Z,50.45
2024-02-23T07:01:54.899Z,50.61
2024-02-23T07:04:22.558Z,50.48
2024-02-23T07:06:50.144Z,50.48
2024-02-23T07:09:17.785Z,51.05
2024-02-23T07:11:46.712Z,50.77
2024-02-23T07:14:15.502Z,50.82
2024-02-23T07:16:43.418Z,50.75
2024-02-23T07:19:11.438Z,50.97
2024-02-23T07:21:42.393Z,51.17
2024-02-23T07:24:11.250Z,50.94
2024-02-23T07:26:39.160Z,51.65
2024-02-23T07:29:08.521Z,51.31
2024-02-23T07:31:36.213Z,51.81
2024-02-23T07:34:04.114Z,51.71
2024-02-23T07:36:31.908Z,51.87
2024-02-23T07:38:59.684Z,51.81
2024-02-23T07:41:27.601Z,51.79
2024-02-23T07:43:55.182Z,51.92
2024-02-23T07:46:26.348Z,52.35
2024-02-23T07:48:55.443Z,52.31
2024-02-23T07:51:23.235Z,52.57
2024-02-23T07:53:50.801Z,52.45
2024-02-23T07:56:18.835Z,52.50
2024-02-23T07:58:46.473Z,52.32
2024-02-23T08:01:15.762Z,52.31
2024-02-23T08:03:44.214Z,52.01
2024-02-23T08:06:14.106Z,52.26
2024-02-23T08:08:41.901Z,52.36
2024-02-23T08:11:09.603Z,52.37
2024-02-23T08:13:37.227Z,52.38
2024-02-23T08:16:05.101Z,52.84
2024-02-23T08:18:33.509Z,52.89
2024-02-23T08:21:03.826Z,52.53
2024-02-23T08:23:31.651Z,52.78
2024-02-23T08:25:59.632Z,53.01
2024-02-23T08:28:27.379Z,52.89
2024-02-23T08:30:55.059Z,53.13
2024-02-23T08:33:22.687Z,52.96
2024-02-23T08:35:50.445Z,52.74
2024-02-23T08:38:19.641Z,53.14
2024-02-23T08:40:47.513Z,52.97
2024-02-23T08:43:15.753Z,52.96
2024-02-23T08:45:43.383Z,52.71
2024-02-23T08:48:16.013Z,52.43
2024-02-23T08:50:43.679Z,52.21
2024-02-23T08:53:11.633Z,52.17
2024-02-23T08:55:39.273Z,52.42
2024-02-23T08:58:10.627Z,52.27
2024-02-23T09:00:38.198Z,52.45
2024-02-23T09:03:06.291Z,52.52
2024-02-23T09:05:33.982Z,52.63
2024-02-23T09:08:01.714Z,52.54
2024-02-23T09:10:29.300Z,52.99
2024-02-23T09:12:56.837Z,53.05
2024-02-23T09:15:24.424Z,53.05
2024-02-23T09:17:52.042Z,53.18
2024-02-23T09:20:19.652Z,53.56
2024-02-23T09:22:47.218Z,53.44
2024-02-23T09:25:14.972Z,53.40
2024-02-23T09:27:44.871Z,53.46
2024-02-23T09:30:14.318Z,53.26
2024-02-23T09:32:42.639Z,53.32
2024-02-23T09:35:10.431Z,53.18
2024-02-23T09:37:38.067Z,53.31
2024-02-23T09:40:07.101Z,52.95
2024-02-23T09:42:36.819Z,53.03
2024-02-23T09:45:06.014Z,53.25
2024-02-23T09:47:33.724Z,53.10
2024-02-23T09:50:04.943Z,52.88
2024-02-23T09:52:33.720Z,53.08
2024-02-23T09:55:01.313Z,52.74
2024-02-23T09:57:29.026Z,52.42
2024-02-23T09:59:57.057Z,52.12
2024-02-23T10:02:24.879Z,51.99
2024-02-23T10:04:55.294Z,52.15
2024-02-23T10:07:23.023Z,51.63
2024-02-23T10:09:50.601Z,51.58
2024-02-23T10:12:19.214Z,51.10
2024-02-23T10:14:46.978Z,51.27
2024-02-23T10:17:14.639Z,51.19
2024-02-23T10:19:42.280Z,50.90
2024-02-23T10:22:10.639Z,51.01
2024-02-23T10:24:38.348Z,50.95
2024-02-23T10:27:05.924Z,50.98
2024-02-23T10:29:33.499Z,50.60
2024-02-23T10:32:04.758Z,50.75
2024-02-23T10:34:32.816Z,50.80
2024-02-23T10:37:00.986Z,50.53
2024-02-23T10:39:31.776Z,50.20
2024-02-23T10:42:04.941Z,50.40
2024-02-23T10:44:33.011Z,50.28
2024-02-23T10:47:01.652Z,50.28
2024-02-23T10:49:29.453Z,50.28
2024-02-23T10:51:58.034Z,50.48
2024-02-23T10:54:27.324Z,49.65
2024-02-23T10:56:56.883Z,49.88
2024-02-23T10:59:25.262Z,49.61
2024-02-23T11:01:55.666Z,49.92
2024-02-23T11:04:23.861Z,49.83
2024-02-23T11:06:59.473Z,49.40
2024-02-23T11:09:27.461Z,49.21
2024-02-23T11:11:56.586Z,49.45
2024-02-23T11:14:38.711Z,48.88
2024-02-23T11:17:07.096Z,49.01
2024-02-23T11:19:36.906Z,48.84
2024-02-23T11:22:06.589Z,48.71
2024-02-23T11:24:35.428Z,49.20
2024-02-23T11:27:10.123Z,48.80
2024-02-23T11:29:40.715Z,48.65
2024-02-23T11:32:16.698Z,48.65
2024-02-23T11:34:59.320Z,48.67
2024-02-23T11:37:31.015Z,48.58
2024-02-23T11:39:59.485Z,48.43
2024-02-23T11:42:28.363Z,48.27
2024-02-23T11:44:56.048Z,48.28
2024-02-23T11:47:23.679Z,48.22
2024-02-23T11:49:51.277Z,48.00
2024-02-23T11:52:19.012Z,47.67
2024-02-23T11:54:47.244Z,47.65
2024-02-23T11:57:15.598Z,47.74
2024-02-23T11:59:43.274Z,47.67
2024-02-23T12:02:10.948Z,47.98
2024-02-23T12:04:38.654Z,47.98
2024-02-23T12:07:06.242Z,47.62
2024-02-23T12:09:33.875Z,47.62
2024-02-23T12:12:01.752Z,47.60
2024-02-23T12:14:29.387Z,47.74
2024-02-23T12:17:22.474Z,47.38
2024-02-23T12:19:52.810Z,47.34
2024-02-23T12:22:26.566Z,47.10
2024-02-23T12:24:54.574Z,46.58
2024-02-23T12:27:22.770Z,46.26
2024-02-23T12:29:56.663Z,46.38
2024-02-23T12:32:24.498Z,47.06
2024-02-23T12:34:53.431Z,46.35
2024-02-23T12:37:23.666Z,46.62
2024-02-23T12:39:51.270Z,46.41
2024-02-23T12:42:20.323Z,46.13
2024-02-23T12:44:48.617Z,46.25
2024-02-23T12:47:16.211Z,46.06
2024-02-23T12:49:45.701Z,46.48
2024-02-23T12:52:14.120Z,46.12
2024-02-23T12:54:43.043Z,46.21
2024-02-23T12:57:10.645Z,46.44
2024-02-23T12:59:38.319Z,46.22
2024-02-23T13:02:08.930Z,46.15
2024-02-23T13:04:36.551Z,45.77
2024-02-23T13:07:04.182Z,46.00
2024-02-23T13:09:31.754Z,45.34
2024-02-23T13:11:59.444Z,45.60
2024-02-23T13:14:27.199Z,45.73
2024-02-23T13:16:54.977Z,45.44
2024-02-23T13:19:23.004Z,45.27
2024-02-23T13:21:50.645Z,45.24
2024-02-23T13:24:18.258Z,45.46
2024-02-23T13:26:46.159Z,45.16
2024-02-23T13:29:18.291Z,45.23
2024-02-23T13:31:45.878Z,45.03
2024-02-23T13:34:16.767Z,45.45
2024-02-23T13:36:45.130Z,45.27
2024-02-23T13:39:12.727Z,45.03
2024-02-23T13:41:40.404Z,45.11
2024-02-23T13:44:08.472Z,45.07
2024-02-23T13:46:42.089Z,45.22
2024-02-23T13:49:10.816Z,45.08
2024-02-23T13:51:38.668Z,45.36
2024-02-23T13:54:06.300Z,45.52
2024-02-23T13:56:34.026Z,45.17
2024-02-23T13:59:01.674Z,45.16
2024-02-23T14:01:29.278Z,45.58
2024-02-23T14:03:56.940Z,45.71
2024-02-23T14:06:25.293Z,45.24
2024-02-23T14:08:52.927Z,45.15
2024-02-23T14:11:20.789Z,45.19
2024-02-23T14:13:51.047Z,45.36
2024-02-23T14:16:19.570Z,45.41
2024-02-23T14:18:47.717Z,45.62
2024-02-23T14:21:16.062Z,45.50
2024-02-23T14:23:43.919Z,45.16
2024-02-23T14:26:12.001Z,45.38
2024-02-23T14:28:40.389Z,45.28
2024-02-23T14:31:08.092Z,45.21
2024-02-23T14:33:35.764Z,44.90
2024-02-23T14:36:04.060Z,45.03
2024-02-23T14:38:31.638Z,45.10
2024-02-23T14:41:00.064Z,45.22
2024-02-23T14:43:27.761Z,45.45
2024-02-23T14:45:55.400Z,45.22
2024-02-23T14:48:23.141Z,45.73
2024-02-23T14:50:50.822Z,45.88
2024-02-23T14:53:18.537Z,45.82
2024-02-23T14:55:46.134Z,44.96
2024-02-23T14:58:14.023Z,45.24
2024-02-23T15:00:42.053Z,44.97
2024-02-23T15:03:10.523Z,44.92
2024-02-23T15:05:38.283Z,45.27
2024-02-23T15:08:08.440Z,45.50
2024-02-23T15:10:36.200Z,45.24
2024-02-23T15:13:03.947Z,45.41
2024-02-23T15:15:31.567Z,45.88
2024-02-23T15:17:59.198Z,45.44
2024-02-23T15:20:26.975Z,45.95
2024-02-23T15:22:54.851Z,45.97
2024-02-23T15:25:22.459Z,45.76
2024-02-23T15:27:50.246Z,45.70
2024-02-23T15:30:18.161Z,46.81
2024-02-23T15:32:45.867Z,46.80
2024-02-23T15:35:13.624Z,46.72
2024-02-23T15:37:41.245Z,47.67
2024-02-23T15:40:09.912Z,47.47
2024-02-23T15:42:38.048Z,47.34
2024-02-23T15:45:09.855Z,46.64
2024-02-23T15:47:37.866Z,47.04
2024-02-23T15:50:22.891Z,46.70
2024-02-23T15:52:53.695Z,47.24
2024-02-23T15:55:21.350Z,47.13
2024-02-23T15:57:48.944Z,47.33
2024-02-23T16:00:17.975Z,47.44
2024-02-23T16:02:45.808Z,47.47
2024-02-23T16:05:13.439Z,47.34
2024-02-23T16:07:41.114Z,47.13
2024-02-23T16:10:10.297Z,47.14
2024-02-23T16:12:38.023Z,47.51
2024-02-23T16:15:07.979Z,47.64
2024-02-23T16:17:37.995Z,47.68
2024-02-23T16:20:06.734Z,48.28
2024-02-23T16:22:34.502Z,48.30
2024-02-23T16:25:02.176Z,48.26
2024-02-23T16:27:29.756Z,48.82
2024-02-23T16:29:57.446Z,49.00
2024-02-23T16:32:25.116Z,48.71
2024-02-23T16:34:52.790Z,48.99
2024-02-23T16:37:20.426Z,48.99
2024-02-23T16:39:48.134Z,49.09
2024-02-23T16:42:15.759Z,49.45
2024-02-23T16:44:43.393Z,49.05
2024-02-23T16:47:10.998Z,49.57
2024-02-23T16:49:38.725Z,49.38
2024-02-23T16:52:07.457Z,49.61
2024-02-23T16:54:35.191Z,49.42
2024-02-23T16:57:02.822Z,49.94
2024-02-23T16:59:30.418Z,49.87
2024-02-23T17:01:59.328Z,49.78
2024-02-23T17:04:27.059Z,49.86
2024-02-23T17:06:54.860Z,50.00
2024-02-23T17:09:22.447Z,49.85
2024-02-23T17:11:50.125Z,49.94
2024-02-23T17:14:17.875Z,49.79
2024-02-23T17:16:45.505Z,50.04
2024-02-23T17:19:13.795Z,49.77
2024-02-23T17:21:41.436Z,50.04
2024-02-23T17:24:09.209Z,50.07
2024-02-23T17:26:37.027Z,50.05
2024-02-23T17:29:04.883Z,50.47
2024-02-23T17:31:32.499Z,50.52
2024-02-23T17:34:00.118Z,50.31
2024-02-23T17:36:27.736Z,50.46
2024-02-23T17:38:55.325Z,50.34
2024-02-23T17:41:25.122Z,50.51
2024-02-23T17:43:53.013Z,50.50
2024-02-23T17:46:20.686Z,50.69
2024-02-23T17:48:48.440Z,50.59
2024-02-23T17:51:16.222Z,50.57
2024-02-23T17:53:43.981Z,50.93
2024-02-23T17:56:11.931Z,50.98
2024-02-23T17:58:39.598Z,50.86
2024-02-23T18:01:07.290Z,51.01
2024-02-23T18:03:34.955Z,50.85
2024-02-23T18:06:03.083Z,50.66
2024-02-23T18:08:30.649Z,50.59
2024-02-23T18:10:58.302Z,50.91
2024-02-23T18:13:25.915Z,50.95
2024-02-23T18:15:53.521Z,50.70
2024-02-23T18:18:21.664Z,50.67
2024-02-23T18:20:49.513Z,50.50
2024-02-23T18:23:17.656Z,50.86
2024-02-23T18:25:45.210Z,51.15
2024-02-23T18:28:12.769Z,50.89
2024-02-23T18:30:40.446Z,50.85
2024-02-23T18:33:08.099Z,50.67
2024-02-23T18:35:35.835Z,50.56
2024-02-23T18:38:03.533Z,50.70
2024-02-23T18:40:31.180Z,50.46
2024-02-23T18:42:58.740Z,50.67
2024-02-23T18:45:26.404Z,50.55
2024-02-23T18:47:54.163Z,50.47
2024-02-23T18:50:21.887Z,50.43
2024-02-23T18:52:49.548Z,50.64
2024-02-23T18:55:17.128Z,50.52
2024-02-23T18:57:44.702Z,50.58
2024-02-23T19:00:12.939Z,50.86
2024-02-23T19:02:40.549Z,50.82
2024-02-23T19:05:09.833Z,50.80
2024-02-23T19:07:37.777Z,50.80
2024-02-23T19:10:07.659Z,50.85
2024-02-23T19:12:37.105Z,50.89
2024-02-23T19:15:05.584Z,50.90
2024-02-23T19:18:23.032Z,50.92
2024-02-23T19:20:50.818Z,50.79
2024-02-23T19:23:18.755Z,51.05
2024-02-23T19:25:46.370Z,50.99
2024-02-23T19:28:13.972Z,50.91
2024-02-23T19:30:44.002Z,51.28
2024-02-23T19:33:11.945Z,51.00
2024-02-23T19:35:39.777Z,51.11
2024-02-23T19:38:07.403Z,51.01
2024-02-23T19:40:35.016Z,51.02
2024-02-23T19:43:02.657Z,51.21
2024-02-23T19:45:30.238Z,51.06
2024-02-23T19:47:57.974Z,51.11
2024-02-23T19:50:25.899Z,51.20
2024-02-23T19:52:53.491Z,50.99
2024-02-23T19:55:21.164Z,50.97
2024-02-23T19:57:48.785Z,51.12
2024-02-23T20:00:16.798Z,51.15
2024-02-23T20:02:44.559Z,51.05
2024-02-23T20:05:12.273Z,51.15
2024-02-23T20:07:39.920Z,51.08
2024-02-23T20:10:09.045Z,50.97
2024-02-23T20:12:36.769Z,50.85
2024-02-23T20:15:05.114Z,50.98
2024-02-23T20:17:35.043Z,50.89
2024-02-23T20:20:05.267Z,51.14
2024-02-23T20:22:32.816Z,51.01
2024-02-23T20:25:01.764Z,50.96
2024-02-23T20:27:29.436Z,50.96
2024-02-23T20:29:57.060Z,50.83
2024-02-23T20:32:30.001Z,50.68
2024-02-23T20:35:00.525Z,50.55
2024-02-23T20:37:29.820Z,50.71
2024-02-23T20:39:57.466Z,50.95
2024-02-23T20:42:25.059Z,50.72
2024-02-23T20:44:52.623Z,50.51
2024-02-23T20:47:20.261Z,50.47
2024-02-23T20:49:49.492Z,50.56
2024-02-23T20:52:19.081Z,50.83
2024-02-23T20:54:49.743Z,50.65
2024-02-23T20:57:18.546Z,50.62
2024-02-23T20:59:46.341Z,50.65
2024-02-23T21:02:20.267Z,50.68
2024-02-23T21:04:49.668Z,50.59
2024-02-23T21:07:18.898Z,50.74
2024-02-23T21:09:47.085Z,50.87
2024-02-23T21:12:15.234Z,50.96
2024-02-23T21:14:43.094Z,50.71
2024-02-23T21:17:10.746Z,50.62
2024-02-23T21:19:38.322Z,51.15
2024-02-23T21:22:06.256Z,51.15
2024-02-23T21:24:33.874Z,51.09
2024-02-23T21:27:01.462Z,50.94
2024-02-23T21:29:29.149Z,50.79
2024-02-23T21:31:56.928Z,50.99
2024-02-23T21:34:24.584Z,51.15
2024-02-23T21:36:52.160Z,51.16
2024-02-23T21:39:19.706Z,51.46
2024-02-23T21:41:47.476Z,51.53
2024-02-23T21:44:16.640Z,51.18
2024-02-23T21:46:44.736Z,51.51
2024-02-23T21:49:12.330Z,51.37
2024-02-23T21:51:39.947Z,51.83
2024-02-23T21:54:07.703Z,51.30
2024-02-23T21:56:35.291Z,51.76
2024-02-23T21:59:02.894Z,51.57
2024-02-23T22:01:32.301Z,51.61
2024-02-23T22:03:59.884Z,51.94
2024-02-23T22:06:27.489Z,51.57
2024-02-23T22:08:55.052Z,51.71
2024-02-23T22:11:22.724Z,51.30
2024-02-23T22:13:50.382Z,51.10
2024-02-23T22:16:17.925Z,51.33
2024-02-23T22:18:45.708Z,51.59
2024-02-23T22:21:13.532Z,51.49
2024-02-23T22:23:41.171Z,51.07
2024-02-23T22:26:08.847Z,50.87
2024-02-23T22:28:36.532Z,50.59
2024-02-23T22:31:04.153Z,51.10
2024-02-23T22:33:31.912Z,51.13
2024-02-23T22:35:59.500Z,51.04
2024-02-23T22:38:27.063Z,51.00
2024-02-23T22:40:54.635Z,50.83
2024-02-23T22:43:22.298Z,51.11
2024-02-23T22:45:52.348Z,51.42
2024-02-23T22:48:20.137Z,51.01
2024-02-23T22:50:47.886Z,51.58
2024-02-23T22:53:15.539Z,51.04
2024-02-23T22:55:43.103Z,51.33
2024-02-23T22:58:10.693Z,50.96
2024-02-23T23:00:38.292Z,51.08
2024-02-23T23:03:05.868Z,50.87
2024-02-23T23:05:33.578Z,51.41
2024-02-23T23:08:02.055Z,51.09
2024-02-23T23:10:29.801Z,51.30
2024-02-23T23:12:57.357Z,50.88
2024-02-23T23:15:24.944Z,50.96
2024-02-23T23:17:52.643Z,51.03
2024-02-23T23:20:20.669Z,51.23
2024-02-23T23:22:48.452Z,51.38
2024-02-23T23:25:16.620Z,51.11
2024-02-23T23:27:44.227Z,51.07
2024-02-23T23:30:12.844Z,51.62
2024-02-23T23:32:41.307Z,51.30
2024-02-23T23:35:09.437Z,51.72
2024-02-23T23:37:38.190Z,51.51
2024-02-23T23:40:06.603Z,51.59
2024-02-23T23:42:34.525Z,51.35
2024-02-23T23:45:02.233Z,50.92
2024-02-23T23:47:29.982Z,51.26
2024-02-23T23:49:57.563Z,50.78
2024-02-23T23:52:25.125Z,50.88
2024-02-23T23:54:52.744Z,50.87
2024-02-23T23:57:20.310Z,51.22
2024-02-23T23:59:48.053Z,50.87
